Aviation Digital Data Service (ADDS)

Output produced by METARs form (0056 UTC 22 September 2017)
found at http://www.aviationweather.gov/adds/metars/
 
EFET 220050Z AUTO 16007KT 110V200 9999 OVC005 05/05 Q1029
EFHA 220050Z AUTO 10007KT 050V140 9999 SCT011 BKN089 09/07 Q1031
EFHK 220050Z 06013KT 9999 -RA BKN011 OVC090 10/08 Q1028 NOSIG
TAF EFHK 212324Z 2200/2224 06013KT 9999 BKN011 
     TEMPO 2200/2207 BKN008 
     PROB40 
     TEMPO 2201/2206 3000 BR BKN004 
     TEMPO 2208/2218 BKN015 
     BECMG 2218/2220 3000 BR BKN004
       
EFIV 220050Z AUTO 19005KT 9999 OVC014 07/05 Q1032
EFJO 220050Z AUTO 10004KT 060V130 9999 OVC032 06/05 Q1034
EFJY 220050Z AUTO 10010KT 9999 OVC007 08/06 Q1032
TAF EFJY 212324Z 2200/2224 10009KT 9999 BKN010 
     BECMG 2200/2201 BKN008 
     TEMPO 2201/2203 5000 -DZRA BKN004 
     BECMG 2203/2205 4000 BR BKN004 
     TEMPO 2203/2209 2000 
     BECMG 2212/2215 9999 BKN010
       
EFKI 220050Z AUTO 13005KT 090V190 9999 OVC009 06/04 Q1034
EFKE 220050Z AUTO 15008KT 110V180 9999 OVC011 10/08 Q1032
EFKT 220050Z AUTO 14008KT 2800 BR OVC008 07/05 Q1031
EFKK 220050Z AUTO 11004KT 9999 FEW014 BKN065 09/08 Q1031
EFKU 220050Z AUTO 11005KT 070V140 9999 BKN013 BKN111 07/05 Q1034
TAF EFKU 212327Z 2200/2224 10006KT 9999 OVC015 
     TEMPO 2200/2206 BKN009 
     BECMG 2206/2208 OVC005 
     PROB40 2206/2209 6000 -RA 
     BECMG 2213/2215 OVC010 
     TEMPO 2215/2221 BKN008 
     BECMG 2221/2224 4000 BR BKN004
       
EFKS 220050Z AUTO 14007KT CAVOK 05/03 Q1035
EFLP 220050Z AUTO 06008KT 9999 BKN008 BKN127 08/07 Q1031
EFMA 220050Z AUTO 07005KT 020V140 9999 SCT014 BKN080 13/11 Q1025
TAF EFMA 212324Z 2200/2209 03004KT CAVOK 
     PROB30 2202/2209 BKN013
       
EFMI 220020Z AUTO 06004KT 010V100 9999 OVC011 ///// Q////
EFOU 220050Z AUTO 15007KT 9999 OVC013/// 09/07 Q1033
TAF EFOU 212327Z 2200/2224 15009KT 9999 BKN016 
     TEMPO 2200/2204 BKN013
       
EFPO 220050Z AUTO 08005KT CAVOK 10/09 Q1029
EFRO 220050Z AUTO 16006KT 9999 OVC011 08/05 Q1033
TAF EFRO 212327Z 2200/2224 16007KT 9999 OVC011 
     BECMG 2200/2202 OVC008 
     BECMG 2208/2210 OVC013 
     BECMG 2210/2212 BKN020 
     BECMG 2221/2224 0200 FG VV001
       
EFSA 220050Z AUTO 08006KT 050V110 9999 OVC011 08/06 Q1033
EFSI 220050Z AUTO 12007KT CAVOK 10/08 Q1030
EFTP 220050Z AUTO 07009KT 9999 OVC012 10/08 Q1030
TAF EFTP 212324Z 2200/2224 07009KT 9999 FEW015 
     TEMPO 2200/2204 BKN010 
     BECMG 2205/2207 BKN010 
     TEMPO 2207/2212 BKN008 
     TEMPO 2212/2218 BKN015
       
EFTU 220050Z AUTO 07008KT 9999 SCT015/// OVC088/// 11/09 Q1027
TAF EFTU 212324Z 2200/2224 08009KT 9999 SCT015 BKN080 
     PROB30 2201/2205 4000 BR BKN005 
     TEMPO 2205/2224 BKN013
       
EFUT 220050Z AUTO 04010KT 010V080 9999 OVC008 09/08 Q1030
EFVA 220050Z AUTO 11005KT CAVOK 10/08 Q1030
TAF EFVA 212324Z 2200/2224 11005KT CAVOK 
     TEMPO 2200/2205 2500 BR